sensor_id;sensor_type;location;lat;lon;timestamp;P1;durP1;ratioP1;P2;durP2;ratioP2
15516;SDS011;7860;52.030;5.572;2022-12-10T00:02:55;64.49;;;32.29;;
15516;SDS011;7860;52.030;5.572;2022-12-10T00:02:55;66.63;;;34.28;;
15516;SDS011;7860;52.030;5.572;2022-12-10T00:02:59;65.93;;;33.76;;
15516;SDS011;7860;52.030;5.572;2022-12-10T00:03:59;66.75;;;33.66;;
15516;SDS011;7860;52.030;5.572;2022-12-10T00:05:00;69.45;;;33.12;;
15516;SDS011;7860;52.030;5.572;2022-12-10T00:06:01;70.75;;;34.92;;
15516;SDS011;7860;52.030;5.572;2022-12-10T00:07:02;69.18;;;33.80;;
15516;SDS011;7860;52.030;5.572;2022-12-10T00:08:03;71.19;;;32.92;;
15516;SDS011;7860;52.030;5.572;2022-12-10T00:09:05;74.74;;;35.09;;
15516;SDS011;7860;52.030;5.572;2022-12-10T00:10:05;68.08;;;33.47;;
15516;SDS011;7860;52.030;5.572;2022-12-10T00:11:08;67.80;;;34.49;;
15516;SDS011;7860;52.030;5.572;2022-12-10T00:12:06;68.62;;;34.38;;
15516;SDS011;7860;52.030;5.572;2022-12-10T00:13:06;68.33;;;33.87;;
15516;SDS011;7860;52.030;5.572;2022-12-10T00:14:07;65.08;;;32.95;;
15516;SDS011;7860;52.030;5.572;2022-12-10T00:15:07;68.89;;;34.53;;
15516;SDS011;7860;52.030;5.572;2022-12-10T00:16:09;72.11;;;35.02;;
15516;SDS011;7860;52.030;5.572;2022-12-10T00:17:09;74.64;;;35.79;;
15516;SDS011;7860;52.030;5.572;2022-12-10T00:18:10;70.74;;;36.15;;
15516;SDS011;7860;52.030;5.572;2022-12-10T00:19:11;74.98;;;35.82;;
15516;SDS011;7860;52.030;5.572;2022-12-10T00:20:12;71.39;;;35.49;;
15516;SDS011;7860;52.030;5.572;2022-12-10T00:21:13;68.23;;;34.88;;
15516;SDS011;7860;52.030;5.572;2022-12-10T00:22:13;69.65;;;35.43;;
15516;SDS011;7860;52.030;5.572;2022-12-10T00:23:13;74.20;;;36.09;;
15516;SDS011;7860;52.030;5.572;2022-12-10T00:24:14;67.31;;;33.89;;
15516;SDS011;7860;52.030;5.572;2022-12-10T00:25:16;70.66;;;34.70;;
15516;SDS011;7860;52.030;5.572;2022-12-10T00:26:17;69.23;;;34.14;;
15516;SDS011;7860;52.030;5.572;2022-12-10T00:27:17;67.98;;;34.73;;
15516;SDS011;7860;52.030;5.572;2022-12-10T00:28:18;64.48;;;34.28;;
15516;SDS011;7860;52.030;5.572;2022-12-10T00:29:19;68.96;;;34.89;;
15516;SDS011;7860;52.030;5.572;2022-12-10T00:30:20;70.06;;;34.10;;
15516;SDS011;7860;52.030;5.572;2022-12-10T00:31:21;65.88;;;33.16;;
15516;SDS011;7860;52.030;5.572;2022-12-10T00:32:21;68.86;;;32.76;;
15516;SDS011;7860;52.030;5.572;2022-12-10T00:33:22;63.56;;;30.64;;
15516;SDS011;7860;52.030;5.572;2022-12-10T00:34:22;67.56;;;33.38;;
15516;SDS011;7860;52.030;5.572;2022-12-10T00:35:23;68.70;;;33.96;;
15516;SDS011;7860;52.030;5.572;2022-12-10T00:36:25;68.95;;;34.55;;
15516;SDS011;7860;52.030;5.572;2022-12-10T00:37:25;68.43;;;34.90;;
15516;SDS011;7860;52.030;5.572;2022-12-10T00:38:26;76.79;;;36.91;;
15516;SDS011;7860;52.030;5.572;2022-12-10T00:39:27;72.19;;;36.21;;
15516;SDS011;7860;52.030;5.572;2022-12-10T00:40:28;70.68;;;34.94;;
15516;SDS011;7860;52.030;5.572;2022-12-10T00:41:28;73.44;;;34.83;;
15516;SDS011;7860;52.030;5.572;2022-12-10T00:42:29;70.12;;;35.60;;
15516;SDS011;7860;52.030;5.572;2022-12-10T00:43:30;68.67;;;34.30;;
15516;SDS011;7860;52.030;5.572;2022-12-10T00:44:30;73.64;;;36.57;;
15516;SDS011;7860;52.030;5.572;2022-12-10T00:45:31;66.51;;;32.74;;
15516;SDS011;7860;52.030;5.572;2022-12-10T00:46:32;68.86;;;35.04;;
15516;SDS011;7860;52.030;5.572;2022-12-10T00:47:33;70.90;;;34.83;;
15516;SDS011;7860;52.030;5.572;2022-12-10T00:48:34;69.69;;;34.09;;
15516;SDS011;7860;52.030;5.572;2022-12-10T00:49:35;68.77;;;34.88;;
15516;SDS011;7860;52.030;5.572;2022-12-10T00:50:36;75.93;;;36.68;;
15516;SDS011;7860;52.030;5.572;2022-12-10T00:51:37;74.98;;;35.98;;
15516;SDS011;7860;52.030;5.572;2022-12-10T00:52:38;71.67;;;36.67;;
15516;SDS011;7860;52.030;5.572;2022-12-10T00:53:41;69.18;;;35.33;;
15516;SDS011;7860;52.030;5.572;2022-12-10T00:54:39;70.85;;;34.55;;
15516;SDS011;7860;52.030;5.572;2022-12-10T00:55:39;71.08;;;34.75;;
15516;SDS011;7860;52.030;5.572;2022-12-10T00:56:40;69.68;;;34.31;;
15516;SDS011;7860;52.030;5.572;2022-12-10T00:57:41;78.32;;;36.90;;
15516;SDS011;7860;52.030;5.572;2022-12-10T00:58:42;74.43;;;35.43;;
15516;SDS011;7860;52.030;5.572;2022-12-10T00:59:43;72.31;;;35.24;;
15516;SDS011;7860;52.030;5.572;2022-12-10T01:00:44;74.15;;;36.03;;
15516;SDS011;7860;52.030;5.572;2022-12-10T01:01:45;69.37;;;35.60;;
15516;SDS011;7860;52.030;5.572;2022-12-10T01:02:46;69.60;;;34.95;;
15516;SDS011;7860;52.030;5.572;2022-12-10T01:03:47;70.10;;;34.75;;
15516;SDS011;7860;52.030;5.572;2022-12-10T01:04:51;75.20;;;36.50;;
15516;SDS011;7860;52.030;5.572;2022-12-10T01:05:48;74.72;;;36.54;;
15516;SDS011;7860;52.030;5.572;2022-12-10T01:06:49;74.47;;;38.40;;
15516;SDS011;7860;52.030;5.572;2022-12-10T01:07:50;65.58;;;33.96;;
15516;SDS011;7860;52.030;5.572;2022-12-10T01:08:50;72.08;;;34.51;;
15516;SDS011;7860;52.030;5.572;2022-12-10T01:09:50;78.14;;;36.34;;
15516;SDS011;7860;52.030;5.572;2022-12-10T01:10:52;67.00;;;34.72;;
15516;SDS011;7860;52.030;5.572;2022-12-10T01:11:51;66.10;;;33.25;;
15516;SDS011;7860;52.030;5.572;2022-12-10T01:12:52;63.98;;;33.95;;
15516;SDS011;7860;52.030;5.572;2022-12-10T01:13:53;75.19;;;36.53;;
15516;SDS011;7860;52.030;5.572;2022-12-10T01:14:53;73.06;;;36.29;;
15516;SDS011;7860;52.030;5.572;2022-12-10T01:15:54;71.96;;;35.29;;
15516;SDS011;7860;52.030;5.572;2022-12-10T01:16:55;74.69;;;36.46;;
15516;SDS011;7860;52.030;5.572;2022-12-10T01:17:55;69.92;;;35.28;;
15516;SDS011;7860;52.030;5.572;2022-12-10T01:18:57;67.53;;;35.32;;
15516;SDS011;7860;52.030;5.572;2022-12-10T01:19:57;63.02;;;32.57;;
15516;SDS011;7860;52.030;5.572;2022-12-10T01:21:00;71.01;;;35.62;;
15516;SDS011;7860;52.030;5.572;2022-12-10T01:21:58;72.69;;;35.61;;
15516;SDS011;7860;52.030;5.572;2022-12-10T01:22:59;77.15;;;36.81;;
15516;SDS011;7860;52.030;5.572;2022-12-10T01:23:59;73.85;;;35.67;;
15516;SDS011;7860;52.030;5.572;2022-12-10T01:25:00;75.18;;;35.92;;
15516;SDS011;7860;52.030;5.572;2022-12-10T01:26:01;79.39;;;36.69;;
15516;SDS011;7860;52.030;5.572;2022-12-10T01:27:01;78.60;;;37.14;;
15516;SDS011;7860;52.030;5.572;2022-12-10T01:28:02;73.55;;;35.31;;
15516;SDS011;7860;52.030;5.572;2022-12-10T01:29:03;76.45;;;37.06;;
15516;SDS011;7860;52.030;5.572;2022-12-10T01:30:05;66.25;;;30.18;;
15516;SDS011;7860;52.030;5.572;2022-12-10T01:31:07;73.50;;;35.48;;
15516;SDS011;7860;52.030;5.572;2022-12-10T01:32:05;79.60;;;36.17;;
15516;SDS011;7860;52.030;5.572;2022-12-10T01:33:06;70.53;;;33.78;;
15516;SDS011;7860;52.030;5.572;2022-12-10T01:34:08;72.74;;;36.16;;
15516;SDS011;7860;52.030;5.572;2022-12-10T01:35:07;73.60;;;37.63;;
15516;SDS011;7860;52.030;5.572;2022-12-10T01:36:08;71.40;;;35.29;;
15516;SDS011;7860;52.030;5.572;2022-12-10T01:37:08;74.35;;;35.82;;
15516;SDS011;7860;52.030;5.572;2022-12-10T01:38:09;73.87;;;35.62;;
15516;SDS011;7860;52.030;5.572;2022-12-10T01:39:12;69.50;;;34.90;;
15516;SDS011;7860;52.030;5.572;2022-12-10T01:40:11;76.39;;;36.56;;
15516;SDS011;7860;52.030;5.572;2022-12-10T01:41:13;74.99;;;35.76;;
15516;SDS011;7860;52.030;5.572;2022-12-10T01:42:12;74.76;;;33.82;;
15516;SDS011;7860;52.030;5.572;2022-12-10T01:43:12;72.13;;;36.01;;
15516;SDS011;7860;52.030;5.572;2022-12-10T01:45:14;69.59;;;34.03;;
15516;SDS011;7860;52.030;5.572;2022-12-10T01:46:15;74.67;;;34.80;;
15516;SDS011;7860;52.030;5.572;2022-12-10T01:47:15;76.27;;;35.02;;
15516;SDS011;7860;52.030;5.572;2022-12-10T01:48:16;71.85;;;34.71;;
15516;SDS011;7860;52.030;5.572;2022-12-10T01:49:18;76.18;;;35.99;;
15516;SDS011;7860;52.030;5.572;2022-12-10T01:50:18;78.71;;;34.68;;
15516;SDS011;7860;52.030;5.572;2022-12-10T01:51:19;78.82;;;36.67;;
15516;SDS011;7860;52.030;5.572;2022-12-10T01:52:19;68.29;;;33.76;;
15516;SDS011;7860;52.030;5.572;2022-12-10T01:53:20;72.03;;;36.05;;
15516;SDS011;7860;52.030;5.572;2022-12-10T01:54:22;71.00;;;34.75;;
15516;SDS011;7860;52.030;5.572;2022-12-10T01:55:38;73.12;;;34.85;;
15516;SDS011;7860;52.030;5.572;2022-12-10T01:56:22;73.46;;;36.71;;
15516;SDS011;7860;52.030;5.572;2022-12-10T01:57:23;78.20;;;37.63;;
15516;SDS011;7860;52.030;5.572;2022-12-10T01:58:22;72.64;;;35.60;;
15516;SDS011;7860;52.030;5.572;2022-12-10T01:59:23;70.26;;;34.35;;
15516;SDS011;7860;52.030;5.572;2022-12-10T02:00:24;69.24;;;35.48;;
15516;SDS011;7860;52.030;5.572;2022-12-10T02:01:28;66.81;;;32.65;;
15516;SDS011;7860;52.030;5.572;2022-12-10T02:02:30;69.70;;;34.37;;
15516;SDS011;7860;52.030;5.572;2022-12-10T02:03:29;75.46;;;35.49;;
15516;SDS011;7860;52.030;5.572;2022-12-10T02:04:29;70.06;;;34.10;;
15516;SDS011;7860;52.030;5.572;2022-12-10T02:05:30;73.85;;;36.29;;
15516;SDS011;7860;52.030;5.572;2022-12-10T02:06:31;71.85;;;35.44;;
15516;SDS011;7860;52.030;5.572;2022-12-10T02:07:33;78.23;;;36.89;;
15516;SDS011;7860;52.030;5.572;2022-12-10T02:08:32;72.70;;;36.12;;
15516;SDS011;7860;52.030;5.572;2022-12-10T02:09:34;71.53;;;35.25;;
15516;SDS011;7860;52.030;5.572;2022-12-10T02:10:36;69.09;;;34.24;;
15516;SDS011;7860;52.030;5.572;2022-12-10T02:11:33;71.07;;;34.84;;
15516;SDS011;7860;52.030;5.572;2022-12-10T02:12:34;75.28;;;36.79;;
15516;SDS011;7860;52.030;5.572;2022-12-10T02:13:34;70.39;;;35.00;;
15516;SDS011;7860;52.030;5.572;2022-12-10T02:14:36;76.61;;;35.93;;
15516;SDS011;7860;52.030;5.572;2022-12-10T02:15:36;70.47;;;34.11;;
15516;SDS011;7860;52.030;5.572;2022-12-10T02:16:37;72.60;;;35.85;;
15516;SDS011;7860;52.030;5.572;2022-12-10T02:17:36;64.23;;;32.40;;
15516;SDS011;7860;52.030;5.572;2022-12-10T02:18:37;72.21;;;36.61;;
15516;SDS011;7860;52.030;5.572;2022-12-10T02:19:43;66.23;;;34.93;;
15516;SDS011;7860;52.030;5.572;2022-12-10T02:20:40;69.71;;;34.62;;
15516;SDS011;7860;52.030;5.572;2022-12-10T02:21:40;68.42;;;34.73;;
15516;SDS011;7860;52.030;5.572;2022-12-10T02:22:41;70.53;;;35.90;;
15516;SDS011;7860;52.030;5.572;2022-12-10T02:23:42;69.32;;;35.02;;
15516;SDS011;7860;52.030;5.572;2022-12-10T02:24:41;76.37;;;38.42;;
15516;SDS011;7860;52.030;5.572;2022-12-10T02:25:45;72.35;;;35.86;;
15516;SDS011;7860;52.030;5.572;2022-12-10T02:26:44;71.55;;;36.19;;
15516;SDS011;7860;52.030;5.572;2022-12-10T02:27:45;68.19;;;33.68;;
15516;SDS011;7860;52.030;5.572;2022-12-10T02:28:47;72.06;;;34.82;;
15516;SDS011;7860;52.030;5.572;2022-12-10T02:29:46;74.35;;;36.49;;
15516;SDS011;7860;52.030;5.572;2022-12-10T02:30:46;70.86;;;36.62;;
15516;SDS011;7860;52.030;5.572;2022-12-10T02:31:48;74.48;;;36.44;;
15516;SDS011;7860;52.030;5.572;2022-12-10T02:32:48;75.56;;;37.68;;
15516;SDS011;7860;52.030;5.572;2022-12-10T02:33:48;80.59;;;39.22;;
15516;SDS011;7860;52.030;5.572;2022-12-10T02:34:50;79.05;;;38.60;;
15516;SDS011;7860;52.030;5.572;2022-12-10T02:35:50;83.17;;;39.30;;
15516;SDS011;7860;52.030;5.572;2022-12-10T02:36:51;85.08;;;39.30;;
15516;SDS011;7860;52.030;5.572;2022-12-10T02:37:51;81.48;;;37.58;;
15516;SDS011;7860;52.030;5.572;2022-12-10T02:38:51;79.12;;;40.45;;
15516;SDS011;7860;52.030;5.572;2022-12-10T02:39:53;87.35;;;41.31;;
15516;SDS011;7860;52.030;5.572;2022-12-10T02:40:55;91.04;;;41.71;;
15516;SDS011;7860;52.030;5.572;2022-12-10T02:41:53;94.25;;;41.60;;
15516;SDS011;7860;52.030;5.572;2022-12-10T02:42:54;94.99;;;42.27;;
15516;SDS011;7860;52.030;5.572;2022-12-10T02:43:55;89.51;;;40.13;;
15516;SDS011;7860;52.030;5.572;2022-12-10T02:44:56;95.93;;;42.44;;
15516;SDS011;7860;52.030;5.572;2022-12-10T02:45:56;93.12;;;42.67;;
15516;SDS011;7860;52.030;5.572;2022-12-10T02:46:56;98.47;;;43.84;;
15516;SDS011;7860;52.030;5.572;2022-12-10T02:47:58;96.74;;;42.37;;
15516;SDS011;7860;52.030;5.572;2022-12-10T02:48:58;97.00;;;42.98;;
15516;SDS011;7860;52.030;5.572;2022-12-10T02:49:59;95.56;;;42.47;;
15516;SDS011;7860;52.030;5.572;2022-12-10T02:51:00;93.97;;;42.20;;
15516;SDS011;7860;52.030;5.572;2022-12-10T02:52:05;99.86;;;42.87;;
15516;SDS011;7860;52.030;5.572;2022-12-10T02:53:02;100.04;;;43.55;;
15516;SDS011;7860;52.030;5.572;2022-12-10T02:54:03;93.96;;;41.65;;
15516;SDS011;7860;52.030;5.572;2022-12-10T02:55:04;94.35;;;42.25;;
15516;SDS011;7860;52.030;5.572;2022-12-10T02:56:08;92.04;;;41.09;;
15516;SDS011;7860;52.030;5.572;2022-12-10T02:57:08;96.26;;;43.20;;
15516;SDS011;7860;52.030;5.572;2022-12-10T02:58:06;96.12;;;42.68;;
15516;SDS011;7860;52.030;5.572;2022-12-10T02:59:08;92.70;;;42.77;;
15516;SDS011;7860;52.030;5.572;2022-12-10T03:00:08;90.48;;;41.61;;
15516;SDS011;7860;52.030;5.572;2022-12-10T03:01:10;94.31;;;42.30;;
15516;SDS011;7860;52.030;5.572;2022-12-10T03:02:10;103.39;;;44.33;;
15516;SDS011;7860;52.030;5.572;2022-12-10T03:04:11;97.32;;;42.96;;
15516;SDS011;7860;52.030;5.572;2022-12-10T03:05:12;103.76;;;42.43;;
15516;SDS011;7860;52.030;5.572;2022-12-10T03:06:13;107.05;;;44.39;;
15516;SDS011;7860;52.030;5.572;2022-12-10T03:07:14;102.90;;;42.90;;
15516;SDS011;7860;52.030;5.572;2022-12-10T03:08:14;101.42;;;42.95;;
15516;SDS011;7860;52.030;5.572;2022-12-10T03:09:15;105.36;;;42.81;;
15516;SDS011;7860;52.030;5.572;2022-12-10T03:10:17;99.40;;;43.51;;
15516;SDS011;7860;52.030;5.572;2022-12-10T03:11:16;101.26;;;43.86;;
15516;SDS011;7860;52.030;5.572;2022-12-10T03:12:16;100.16;;;43.22;;
15516;SDS011;7860;52.030;5.572;2022-12-10T03:13:16;96.26;;;43.85;;
15516;SDS011;7860;52.030;5.572;2022-12-10T03:14:18;101.88;;;43.47;;
15516;SDS011;7860;52.030;5.572;2022-12-10T03:15:18;98.13;;;43.93;;
15516;SDS011;7860;52.030;5.572;2022-12-10T03:16:18;101.35;;;43.39;;
15516;SDS011;7860;52.030;5.572;2022-12-10T03:17:19;102.32;;;42.71;;
15516;SDS011;7860;52.030;5.572;2022-12-10T03:18:19;121.27;;;42.72;;
15516;SDS011;7860;52.030;5.572;2022-12-10T03:19:20;121.09;;;43.87;;
15516;SDS011;7860;52.030;5.572;2022-12-10T03:20:20;138.79;;;45.54;;
15516;SDS011;7860;52.030;5.572;2022-12-10T03:21:20;127.12;;;43.68;;
15516;SDS011;7860;52.030;5.572;2022-12-10T03:22:21;130.99;;;44.21;;
15516;SDS011;7860;52.030;5.572;2022-12-10T03:23:22;149.72;;;45.71;;
15516;SDS011;7860;52.030;5.572;2022-12-10T03:24:23;135.11;;;44.66;;
15516;SDS011;7860;52.030;5.572;2022-12-10T03:25:25;109.64;;;40.97;;
15516;SDS011;7860;52.030;5.572;2022-12-10T03:26:25;163.16;;;45.80;;
15516;SDS011;7860;52.030;5.572;2022-12-10T03:27:26;186.25;;;46.28;;
15516;SDS011;7860;52.030;5.572;2022-12-10T03:28:26;172.65;;;43.88;;
15516;SDS011;7860;52.030;5.572;2022-12-10T03:29:27;164.84;;;45.27;;
15516;SDS011;7860;52.030;5.572;2022-12-10T03:30:28;130.62;;;42.46;;
15516;SDS011;7860;52.030;5.572;2022-12-10T03:31:27;141.59;;;44.68;;
15516;SDS011;7860;52.030;5.572;2022-12-10T03:32:56;158.92;;;43.93;;
15516;SDS011;7860;52.030;5.572;2022-12-10T03:33:56;184.79;;;45.21;;
15516;SDS011;7860;52.030;5.572;2022-12-10T03:34:57;273.94;;;50.13;;
15516;SDS011;7860;52.030;5.572;2022-12-10T03:35:57;251.62;;;48.00;;
15516;SDS011;7860;52.030;5.572;2022-12-10T03:36:58;236.97;;;48.83;;
15516;SDS011;7860;52.030;5.572;2022-12-10T03:37:59;322.69;;;50.11;;
15516;SDS011;7860;52.030;5.572;2022-12-10T03:38:59;301.35;;;48.98;;
15516;SDS011;7860;52.030;5.572;2022-12-10T03:40:00;398.31;;;52.66;;
15516;SDS011;7860;52.030;5.572;2022-12-10T03:41:00;286.43;;;48.17;;
15516;SDS011;7860;52.030;5.572;2022-12-10T03:42:01;249.14;;;46.96;;
15516;SDS011;7860;52.030;5.572;2022-12-10T03:43:01;347.96;;;51.58;;
15516;SDS011;7860;52.030;5.572;2022-12-10T03:44:02;249.12;;;46.46;;
15516;SDS011;7860;52.030;5.572;2022-12-10T03:45:03;320.75;;;50.79;;
15516;SDS011;7860;52.030;5.572;2022-12-10T03:46:04;408.72;;;53.78;;
15516;SDS011;7860;52.030;5.572;2022-12-10T03:47:06;447.81;;;53.49;;
15516;SDS011;7860;52.030;5.572;2022-12-10T03:48:05;209.74;;;43.92;;
15516;SDS011;7860;52.030;5.572;2022-12-10T03:49:06;189.74;;;45.86;;
15516;SDS011;7860;52.030;5.572;2022-12-10T03:50:07;435.52;;;51.60;;
15516;SDS011;7860;52.030;5.572;2022-12-10T03:51:08;366.95;;;50.40;;
15516;SDS011;7860;52.030;5.572;2022-12-10T03:52:08;435.69;;;51.97;;
15516;SDS011;7860;52.030;5.572;2022-12-10T03:53:08;434.46;;;53.92;;
15516;SDS011;7860;52.030;5.572;2022-12-10T03:54:08;384.59;;;52.42;;
15516;SDS011;7860;52.030;5.572;2022-12-10T03:55:09;304.28;;;48.75;;
15516;SDS011;7860;52.030;5.572;2022-12-10T03:56:10;375.92;;;53.39;;
15516;SDS011;7860;52.030;5.572;2022-12-10T03:57:11;413.47;;;53.37;;
15516;SDS011;7860;52.030;5.572;2022-12-10T03:58:11;317.88;;;50.91;;
15516;SDS011;7860;52.030;5.572;2022-12-10T03:59:12;362.68;;;53.63;;
15516;SDS011;7860;52.030;5.572;2022-12-10T04:00:12;195.89;;;45.90;;
15516;SDS011;7860;52.030;5.572;2022-12-10T04:01:13;287.07;;;50.17;;
15516;SDS011;7860;52.030;5.572;2022-12-10T04:02:14;273.68;;;49.69;;
15516;SDS011;7860;52.030;5.572;2022-12-10T04:03:14;222.47;;;46.67;;
15516;SDS011;7860;52.030;5.572;2022-12-10T04:04:14;165.70;;;43.32;;
15516;SDS011;7860;52.030;5.572;2022-12-10T04:05:16;151.01;;;42.87;;
15516;SDS011;7860;52.030;5.572;2022-12-10T04:06:17;185.61;;;44.27;;
15516;SDS011;7860;52.030;5.572;2022-12-10T04:07:16;178.35;;;45.56;;
15516;SDS011;7860;52.030;5.572;2022-12-10T04:08:17;386.77;;;53.47;;
15516;SDS011;7860;52.030;5.572;2022-12-10T04:09:18;335.11;;;51.49;;
15516;SDS011;7860;52.030;5.572;2022-12-10T04:10:19;261.39;;;47.31;;
15516;SDS011;7860;52.030;5.572;2022-12-10T04:11:20;277.26;;;47.17;;
15516;SDS011;7860;52.030;5.572;2022-12-10T04:12:20;297.63;;;49.50;;
15516;SDS011;7860;52.030;5.572;2022-12-10T04:13:21;365.00;;;52.08;;
15516;SDS011;7860;52.030;5.572;2022-12-10T04:14:22;410.49;;;54.16;;
15516;SDS011;7860;52.030;5.572;2022-12-10T04:15:23;265.62;;;47.24;;
15516;SDS011;7860;52.030;5.572;2022-12-10T04:16:24;198.04;;;45.32;;
15516;SDS011;7860;52.030;5.572;2022-12-10T04:17:24;343.60;;;51.21;;
15516;SDS011;7860;52.030;5.572;2022-12-10T04:18:24;208.26;;;44.85;;
15516;SDS011;7860;52.030;5.572;2022-12-10T04:19:25;253.61;;;46.33;;
15516;SDS011;7860;52.030;5.572;2022-12-10T04:20:26;378.83;;;51.09;;
15516;SDS011;7860;52.030;5.572;2022-12-10T04:21:28;221.93;;;44.33;;
15516;SDS011;7860;52.030;5.572;2022-12-10T04:22:27;225.82;;;45.22;;
15516;SDS011;7860;52.030;5.572;2022-12-10T04:23:28;247.57;;;46.82;;
15516;SDS011;7860;52.030;5.572;2022-12-10T04:24:28;184.65;;;42.08;;
15516;SDS011;7860;52.030;5.572;2022-12-10T04:25:29;259.81;;;46.93;;
15516;SDS011;7860;52.030;5.572;2022-12-10T04:26:30;327.78;;;48.71;;
15516;SDS011;7860;52.030;5.572;2022-12-10T04:27:31;364.63;;;51.60;;
15516;SDS011;7860;52.030;5.572;2022-12-10T04:28:31;290.03;;;46.68;;
15516;SDS011;7860;52.030;5.572;2022-12-10T04:29:32;293.72;;;45.73;;
15516;SDS011;7860;52.030;5.572;2022-12-10T04:30:32;418.79;;;53.47;;
15516;SDS011;7860;52.030;5.572;2022-12-10T04:31:33;251.73;;;47.73;;
15516;SDS011;7860;52.030;5.572;2022-12-10T04:32:34;254.30;;;48.87;;
15516;SDS011;7860;52.030;5.572;2022-12-10T04:33:35;242.77;;;45.95;;
15516;SDS011;7860;52.030;5.572;2022-12-10T04:34:36;238.54;;;47.93;;
15516;SDS011;7860;52.030;5.572;2022-12-10T04:35:36;318.18;;;46.65;;
15516;SDS011;7860;52.030;5.572;2022-12-10T04:36:37;290.15;;;45.53;;
15516;SDS011;7860;52.030;5.572;2022-12-10T04:37:38;295.70;;;45.93;;
15516;SDS011;7860;52.030;5.572;2022-12-10T04:38:39;279.08;;;46.26;;
15516;SDS011;7860;52.030;5.572;2022-12-10T04:39:40;210.39;;;42.26;;
15516;SDS011;7860;52.030;5.572;2022-12-10T04:40:40;270.10;;;43.38;;
15516;SDS011;7860;52.030;5.572;2022-12-10T04:41:41;351.94;;;49.58;;
15516;SDS011;7860;52.030;5.572;2022-12-10T04:42:41;167.18;;;39.88;;
15516;SDS011;7860;52.030;5.572;2022-12-10T04:43:42;249.12;;;44.33;;
15516;SDS011;7860;52.030;5.572;2022-12-10T04:44:43;245.88;;;45.39;;
15516;SDS011;7860;52.030;5.572;2022-12-10T04:45:44;233.97;;;45.17;;
15516;SDS011;7860;52.030;5.572;2022-12-10T04:46:45;394.01;;;51.08;;
15516;SDS011;7860;52.030;5.572;2022-12-10T04:47:45;374.61;;;48.86;;
15516;SDS011;7860;52.030;5.572;2022-12-10T04:48:46;362.57;;;51.60;;
15516;SDS011;7860;52.030;5.572;2022-12-10T04:49:46;415.70;;;50.47;;
15516;SDS011;7860;52.030;5.572;2022-12-10T04:50:47;434.08;;;52.33;;
15516;SDS011;7860;52.030;5.572;2022-12-10T04:51:48;436.34;;;54.04;;
15516;SDS011;7860;52.030;5.572;2022-12-10T04:52:48;352.53;;;50.31;;
15516;SDS011;7860;52.030;5.572;2022-12-10T04:53:49;307.46;;;47.93;;
15516;SDS011;7860;52.030;5.572;2022-12-10T04:54:50;354.86;;;49.50;;
15516;SDS011;7860;52.030;5.572;2022-12-10T04:55:51;399.01;;;51.46;;
15516;SDS011;7860;52.030;5.572;2022-12-10T04:56:52;337.17;;;51.41;;
15516;SDS011;7860;52.030;5.572;2022-12-10T04:57:53;451.04;;;55.83;;
15516;SDS011;7860;52.030;5.572;2022-12-10T04:58:54;371.56;;;52.80;;
15516;SDS011;7860;52.030;5.572;2022-12-10T04:59:54;268.12;;;48.73;;
15516;SDS011;7860;52.030;5.572;2022-12-10T05:01:00;395.73;;;51.48;;
15516;SDS011;7860;52.030;5.572;2022-12-10T05:01:56;360.36;;;51.59;;
15516;SDS011;7860;52.030;5.572;2022-12-10T05:02:56;293.37;;;45.44;;
15516;SDS011;7860;52.030;5.572;2022-12-10T05:03:58;388.41;;;50.08;;
15516;SDS011;7860;52.030;5.572;2022-12-10T05:04:58;400.91;;;51.62;;
15516;SDS011;7860;52.030;5.572;2022-12-10T05:06:00;266.65;;;47.75;;
15516;SDS011;7860;52.030;5.572;2022-12-10T05:07:00;228.66;;;46.71;;
15516;SDS011;7860;52.030;5.572;2022-12-10T05:08:01;218.50;;;48.28;;
15516;SDS011;7860;52.030;5.572;2022-12-10T05:09:02;225.72;;;46.65;;
15516;SDS011;7860;52.030;5.572;2022-12-10T05:10:03;440.54;;;51.41;;
15516;SDS011;7860;52.030;5.572;2022-12-10T05:11:05;403.26;;;52.84;;
15516;SDS011;7860;52.030;5.572;2022-12-10T05:12:04;292.15;;;47.84;;
15516;SDS011;7860;52.030;5.572;2022-12-10T05:13:05;470.15;;;57.86;;
15516;SDS011;7860;52.030;5.572;2022-12-10T05:14:06;435.83;;;55.45;;
15516;SDS011;7860;52.030;5.572;2022-12-10T05:15:07;435.54;;;54.25;;
15516;SDS011;7860;52.030;5.572;2022-12-10T05:16:09;447.24;;;55.55;;
15516;SDS011;7860;52.030;5.572;2022-12-10T05:17:08;411.65;;;54.52;;
15516;SDS011;7860;52.030;5.572;2022-12-10T05:18:09;521.00;;;55.38;;
15516;SDS011;7860;52.030;5.572;2022-12-10T05:19:10;300.67;;;47.16;;
15516;SDS011;7860;52.030;5.572;2022-12-10T05:20:11;351.49;;;52.58;;
15516;SDS011;7860;52.030;5.572;2022-12-10T05:21:13;375.82;;;51.62;;
15516;SDS011;7860;52.030;5.572;2022-12-10T05:22:13;391.24;;;51.65;;
15516;SDS011;7860;52.030;5.572;2022-12-10T05:23:14;339.62;;;50.16;;
15516;SDS011;7860;52.030;5.572;2022-12-10T05:24:15;497.27;;;56.61;;
15516;SDS011;7860;52.030;5.572;2022-12-10T05:25:16;331.56;;;47.29;;
15516;SDS011;7860;52.030;5.572;2022-12-10T05:26:18;317.99;;;47.33;;
15516;SDS011;7860;52.030;5.572;2022-12-10T05:27:17;560.08;;;56.63;;
15516;SDS011;7860;52.030;5.572;2022-12-10T05:28:19;527.66;;;55.14;;
15516;SDS011;7860;52.030;5.572;2022-12-10T05:29:19;566.03;;;58.97;;
15516;SDS011;7860;52.030;5.572;2022-12-10T05:30:20;374.44;;;49.50;;
15516;SDS011;7860;52.030;5.572;2022-12-10T05:31:22;436.27;;;52.90;;
15516;SDS011;7860;52.030;5.572;2022-12-10T05:32:22;417.94;;;50.37;;
15516;SDS011;7860;52.030;5.572;2022-12-10T05:33:23;528.13;;;55.17;;
15516;SDS011;7860;52.030;5.572;2022-12-10T05:34:23;317.68;;;50.18;;
15516;SDS011;7860;52.030;5.572;2022-12-10T05:35:24;234.04;;;46.13;;
15516;SDS011;7860;52.030;5.572;2022-12-10T05:36:26;218.77;;;44.82;;
15516;SDS011;7860;52.030;5.572;2022-12-10T05:37:25;339.42;;;49.34;;
15516;SDS011;7860;52.030;5.572;2022-12-10T05:38:26;266.72;;;46.39;;
15516;SDS011;7860;52.030;5.572;2022-12-10T05:39:26;355.55;;;50.21;;
15516;SDS011;7860;52.030;5.572;2022-12-10T05:40:26;438.05;;;53.05;;
15516;SDS011;7860;52.030;5.572;2022-12-10T05:41:28;496.61;;;55.49;;
15516;SDS011;7860;52.030;5.572;2022-12-10T05:42:28;405.48;;;51.67;;
15516;SDS011;7860;52.030;5.572;2022-12-10T05:43:28;467.25;;;55.30;;
15516;SDS011;7860;52.030;5.572;2022-12-10T05:44:29;237.71;;;45.20;;
15516;SDS011;7860;52.030;5.572;2022-12-10T05:45:31;316.30;;;50.29;;
15516;SDS011;7860;52.030;5.572;2022-12-10T05:46:31;251.88;;;47.64;;
15516;SDS011;7860;52.030;5.572;2022-12-10T05:47:31;427.99;;;54.25;;
15516;SDS011;7860;52.030;5.572;2022-12-10T05:48:31;349.73;;;49.32;;
15516;SDS011;7860;52.030;5.572;2022-12-10T05:49:31;401.27;;;52.53;;
15516;SDS011;7860;52.030;5.572;2022-12-10T05:50:32;401.65;;;49.89;;
15516;SDS011;7860;52.030;5.572;2022-12-10T05:51:34;285.07;;;47.70;;
15516;SDS011;7860;52.030;5.572;2022-12-10T05:52:33;448.24;;;54.67;;
15516;SDS011;7860;52.030;5.572;2022-12-10T05:53:34;430.04;;;53.20;;
15516;SDS011;7860;52.030;5.572;2022-12-10T05:54:35;303.40;;;48.38;;
15516;SDS011;7860;52.030;5.572;2022-12-10T05:55:35;494.41;;;55.34;;
15516;SDS011;7860;52.030;5.572;2022-12-10T05:56:36;335.25;;;50.49;;
15516;SDS011;7860;52.030;5.572;2022-12-10T05:57:37;521.66;;;59.41;;
15516;SDS011;7860;52.030;5.572;2022-12-10T05:58:38;356.28;;;54.07;;
15516;SDS011;7860;52.030;5.572;2022-12-10T05:59:38;434.93;;;57.13;;
15516;SDS011;7860;52.030;5.572;2022-12-10T06:00:39;319.17;;;51.65;;